Time;durP1;ratioP1;P1;durP2;ratioP2;P2;SDS_P1;SDS_P2;PMS_P1;PMS_P2;Temp;Humidity;BMP_temperature;BMP_pressure;BME280_temperature;BME280_humidity;BME280_pressure;Samples;Min_cycle;Max_cycle;Signal;HPM_P1;HPM_P2
2022/04/20 00:04:45;;;;;;;4.72;2.10;;;;;;;7.91;41.56;99799.50;10329449;28;20555;-76
2022/04/20 00:09:46;;;;;;;3.78;2.20;;;;;;;7.91;41.75;99801.25;10329611;28;20054;-77
2022/04/20 00:14:48;;;;;;;6.93;2.60;;;;;;;7.83;42.10;99798.19;10326914;28;20166;-76
2022/04/20 00:19:50;;;;;;;3.95;2.22;;;;;;;7.56;42.62;99799.56;10323296;28;20058;-76
2022/04/20 00:24:52;;;;;;;3.22;2.10;;;;;;;7.51;42.84;99799.78;10324794;28;20190;-77
2022/04/20 00:29:54;;;;;;;3.78;1.95;;;;;;;7.52;42.89;99798.03;10341548;28;20062;-77
2022/04/20 00:34:55;;;;;;;3.67;2.10;;;;;;;7.48;42.93;99789.53;10324356;28;20686;-76
2022/04/20 00:39:57;;;;;;;6.63;2.38;;;;;;;7.38;43.25;99792.66;10342398;28;20124;-77
2022/04/20 00:44:59;;;;;;;3.72;2.22;;;;;;;7.20;43.41;99800.44;10323975;28;20556;-76
2022/04/20 00:50:01;;;;;;;4.07;2.10;;;;;;;6.93;43.78;99800.91;10333221;28;20061;-77
2022/04/20 00:55:04;;;;;;;5.85;2.30;;;;;;;7.03;43.82;99799.56;10336568;28;20084;-76
2022/04/20 01:00:07;;;;;;;7.35;2.85;;;;;;;6.96;44.34;99800.75;10337338;28;20140;-76
2022/04/20 01:05:09;;;;;;;4.18;2.50;;;;;;;6.88;44.92;99806.31;10314054;28;20050;-76
2022/04/20 01:10:10;;;;;;;6.72;2.60;;;;;;;6.48;45.24;99798.69;10323256;28;20057;-76
2022/04/20 01:15:13;;;;;;;4.15;2.42;;;;;;;6.16;45.51;99792.28;10321671;28;20094;-76
2022/04/20 01:20:16;;;;;;;5.25;3.17;;;;;;;6.20;45.76;99800.78;10319566;28;20145;-76
2022/04/20 01:25:18;;;;;;;6.32;2.80;;;;;;;6.31;45.42;99796.81;10325779;28;20117;-76
2022/04/20 01:30:19;;;;;;;8.25;3.00;;;;;;;6.31;45.81;99802.03;10311561;28;20161;-77
2022/04/20 01:35:22;;;;;;;5.07;2.30;;;;;;;6.25;46.38;99804.03;10327114;28;20484;-77
2022/04/20 01:40:24;;;;;;;3.90;2.30;;;;;;;6.22;46.58;99793.78;10323345;28;20878;-77
2022/04/20 01:45:26;;;;;;;6.63;2.90;;;;;;;6.24;46.35;99792.81;10324637;28;20197;-76
2022/04/20 01:50:27;;;;;;;4.80;2.60;;;;;;;6.27;46.55;99786.63;10315384;28;20185;-77
2022/04/20 01:55:29;;;;;;;3.80;2.50;;;;;;;6.20;46.79;99783.47;10326436;28;20060;-77
2022/04/20 02:00:31;;;;;;;5.60;2.70;;;;;;;6.03;47.02;99792.88;10317882;28;20049;-77
2022/04/20 02:05:33;;;;;;;6.72;2.40;;;;;;;5.47;48.05;99798.69;10327021;28;20089;-77
2022/04/20 02:10:35;;;;;;;5.40;2.80;;;;;;;5.52;48.22;99808.91;10330322;28;20057;-77
2022/04/20 02:15:37;;;;;;;6.22;2.50;;;;;;;5.49;48.80;99803.84;10343316;28;20062;-77
2022/04/20 02:20:39;;;;;;;6.65;2.75;;;;;;;5.44;48.50;99811.81;10334181;28;20056;-76
2022/04/20 02:25:40;;;;;;;7.57;3.03;;;;;;;5.33;48.75;99810.56;10330631;28;20077;-77
2022/04/20 02:30:42;;;;;;;5.68;2.70;;;;;;;5.27;49.08;99803.84;10327657;28;20124;-77
2022/04/20 02:35:44;;;;;;;6.70;3.03;;;;;;;5.33;48.89;99813.97;10332600;28;20078;-77
2022/04/20 02:40:49;;;;;;;5.35;3.00;;;;;;;5.25;49.25;99820.38;10336096;28;20498;-77
2022/04/20 02:45:51;;;;;;;8.45;2.97;;;;;;;4.97;49.56;99812.84;10315928;28;20396;-77
2022/04/20 02:50:53;;;;;;;5.38;3.28;;;;;;;4.73;49.86;99821.56;10329108;28;20050;-77
2022/04/20 02:55:54;;;;;;;5.43;2.90;;;;;;;4.82;49.95;99825.56;10332267;28;20058;-77
2022/04/20 03:00:56;;;;;;;6.30;3.45;;;;;;;4.94;49.59;99828.53;10330475;28;20057;-77
2022/04/20 03:05:58;;;;;;;4.80;2.95;;;;;;;4.84;49.62;99832.34;10338217;28;20164;-76
2022/04/20 03:11:00;;;;;;;5.35;3.20;;;;;;;4.88;49.83;99830.50;10332428;28;20073;-76
2022/04/20 03:16:01;;;;;;;5.03;2.80;;;;;;;4.86;49.85;99829.72;10335034;28;20538;-77
2022/04/20 03:21:03;;;;;;;4.72;2.85;;;;;;;4.78;50.91;99834.34;10329616;28;20079;-77
2022/04/20 03:26:23;;;;;;;4.85;2.30;;;;;;;4.64;52.38;99843.47;10327788;28;20057;-77
2022/04/20 03:31:25;;;;;;;7.85;2.55;;;;;;;4.67;51.64;99845.97;10334609;28;20541;-77
2022/04/20 03:36:34;;;;;;;4.97;2.70;;;;;;;4.68;51.64;99851.97;10331461;28;20065;-77
2022/04/20 03:41:37;;;;;;;5.68;2.90;;;;;;;4.57;51.73;99852.38;10333742;28;20103;-77
2022/04/20 03:46:38;;;;;;;5.03;3.20;;;;;;;4.53;51.72;99856.00;10334661;28;20050;-77
2022/04/20 03:51:40;;;;;;;7.35;3.22;;;;;;;4.57;51.80;99856.72;10330200;28;20082;-77
2022/04/20 04:02:04;;;;;;;5.65;3.30;;;;;;;4.00;52.48;99853.59;10343638;28;20526;-77
2022/04/20 04:07:06;;;;;;;5.72;3.13;;;;;;;4.11;52.60;99862.66;10344106;28;20061;-77
2022/04/20 04:12:09;;;;;;;5.93;3.30;;;;;;;4.19;52.47;99865.81;10331045;28;20116;-77
2022/04/20 04:17:11;;;;;;;5.88;3.20;;;;;;;4.15;52.77;99858.25;10328335;28;20069;-77
2022/04/20 04:22:12;;;;;;;8.57;3.63;;;;;;;3.87;53.01;99866.09;10335771;28;20073;-77
2022/04/20 04:27:16;;;;;;;6.18;3.22;;;;;;;3.70;53.49;99863.19;10333811;28;20129;-77
2022/04/20 04:32:18;;;;;;;5.28;3.00;;;;;;;3.64;54.05;99866.00;10330910;28;20061;-77
2022/04/20 04:37:20;;;;;;;7.97;3.35;;;;;;;3.58;54.05;99873.91;10327437;28;20139;-77
2022/04/20 04:42:21;;;;;;;5.88;2.85;;;;;;;3.70;54.08;99873.56;10330817;28;20579;-77
2022/04/20 04:52:43;;;;;;;5.68;2.92;;;;;;;3.80;53.64;99882.69;10327022;28;20073;-77
2022/04/20 04:57:45;;;;;;;5.95;2.97;;;;;;;3.89;54.01;99882.41;10337230;28;20074;-77
2022/04/20 05:02:47;;;;;;;6.05;3.22;;;;;;;4.10;53.69;99880.84;10342545;28;20089;-77
2022/04/20 05:07:54;;;;;;;5.00;2.60;;;;;;;4.22;53.46;99889.03;10336184;28;20057;-77
2022/04/20 05:12:56;;;;;;;5.10;3.10;;;;;;;4.43;53.22;99885.66;10329370;28;20053;-77
2022/04/20 05:17:57;;;;;;;5.97;2.92;;;;;;;4.62;52.84;99889.31;10322149;28;20519;-77
2022/04/20 05:22:59;;;;;;;7.43;3.42;;;;;;;4.69;52.85;99895.97;10325082;28;20088;-77
2022/04/20 05:28:01;;;;;;;5.38;2.67;;;;;;;4.80;52.73;99882.59;10325999;28;20151;-77
2022/04/20 05:33:04;;;;;;;5.65;3.00;;;;;;;5.01;52.30;99891.31;10316849;28;20181;-77
2022/04/20 05:43:26;;;;;;;7.07;3.08;;;;;;;5.21;52.10;99892.25;10333407;28;20120;-77
2022/04/20 05:48:28;;;;;;;5.40;2.80;;;;;;;5.21;52.08;99887.06;10324330;28;20159;-76
2022/04/20 05:53:30;;;;;;;5.47;2.90;;;;;;;5.43;51.81;99887.91;10326300;28;20139;-77
2022/04/20 05:58:31;;;;;;;7.53;3.10;;;;;;;5.60;51.36;99892.44;10327149;28;20053;-77
2022/04/20 06:03:33;;;;;;;5.55;3.08;;;;;;;5.67;51.53;99880.06;10332426;28;20473;-77
2022/04/20 06:08:35;;;;;;;6.43;3.08;;;;;;;5.86;51.17;99887.03;10322584;28;20121;-76
2022/04/20 06:13:37;;;;;;;4.88;3.08;;;;;;;6.17;51.07;99882.25;10331236;28;20085;-77
2022/04/20 06:18:39;;;;;;;7.95;3.40;;;;;;;6.43;50.69;99877.72;10323333;28;20054;-77
2022/04/20 06:23:41;;;;;;;7.15;3.17;;;;;;;6.63;49.90;99875.94;10323967;28;20108;-77
2022/04/20 06:28:42;;;;;;;7.57;2.80;;;;;;;6.74;50.32;99883.25;10324932;28;20109;-76
2022/04/20 06:33:44;;;;;;;8.48;3.53;;;;;;;6.87;49.66;99889.59;10321337;28;20507;-77
2022/04/20 06:38:46;;;;;;;8.05;3.40;;;;;;;6.96;48.35;99883.94;10311806;28;20062;-77
2022/04/20 06:43:48;;;;;;;9.73;3.55;;;;;;;7.06;48.10;99885.25;10327164;28;20105;-77
2022/04/20 06:48:49;;;;;;;8.45;3.75;;;;;;;7.10;47.43;99884.19;10312099;28;20046;-77
2022/04/20 06:59:11;;;;;;;8.93;4.00;;;;;;;7.39;47.25;99873.25;10318744;28;20066;-78
2022/04/20 07:04:13;;;;;;;9.95;4.18;;;;;;;7.59;46.75;99867.91;10327513;28;20161;-77
2022/04/20 07:09:16;;;;;;;10.18;3.83;;;;;;;7.58;46.40;99862.78;10322886;28;20089;-78
2022/04/20 07:14:17;;;;;;;7.60;3.30;;;;;;;7.96;45.19;99861.75;10320436;28;20480;-77
2022/04/20 07:19:19;;;;;;;6.82;3.20;;;;;;;8.25;44.53;99870.72;10318798;28;20081;-78
2022/04/20 07:24:21;;;;;;;9.93;5.18;;;;;;;8.49;43.57;99867.69;10313286;28;20135;-77
2022/04/20 07:29:23;;;;;;;8.27;4.00;;;;;;;8.60;42.78;99872.34;10326638;28;20114;-78
2022/04/20 07:34:25;;;;;;;4.78;2.80;;;;;;;8.84;42.01;99868.44;10318594;28;20165;-78
2022/04/20 07:39:27;;;;;;;7.53;3.20;;;;;;;10.10;41.24;99875.22;10312175;28;20058;-78
2022/04/20 07:44:29;;;;;;;7.10;3.08;;;;;;;11.43;38.90;99872.22;10310211;28;20054;-77
2022/04/20 07:54:52;;;;;;;6.17;2.77;;;;;;;12.65;35.37;99871.84;10324450;28;20560;-77
2022/04/20 07:59:54;;;;;;;6.10;2.70;;;;;;;13.29;32.80;99870.81;10321798;28;20585;-78
2022/04/20 08:04:56;;;;;;;6.38;2.45;;;;;;;13.64;31.45;99863.84;10325416;28;20054;-78
2022/04/20 08:09:58;;;;;;;5.47;2.60;;;;;;;13.75;31.55;99850.75;10331000;28;20065;-77
2022/04/20 08:14:59;;;;;;;6.97;2.50;;;;;;;14.18;31.20;99859.75;10317563;28;20619;-78
2022/04/20 08:20:07;;;;;;;5.55;2.22;;;;;;;14.19;30.26;99847.41;10316899;28;20101;-78
2022/04/20 08:25:10;;;;;;;4.60;2.40;;;;;;;14.51;29.18;99849.28;10323929;28;20054;-78
2022/04/20 08:30:12;;;;;;;6.47;2.42;;;;;;;14.75;29.53;99856.25;10320870;28;20500;-78
2022/04/20 08:35:15;;;;;;;4.90;2.38;;;;;;;14.51;28.55;99851.94;10322268;28;20053;-78
2022/04/20 08:40:17;;;;;;;4.25;2.20;;;;;;;14.26;26.41;99860.00;10309766;28;20065;-78
2022/04/20 08:45:20;;;;;;;4.75;2.53;;;;;;;14.61;27.86;99830.16;10321769;28;20508;-78
2022/04/20 08:50:24;;;;;;;5.32;2.13;;;;;;;14.66;28.04;99842.00;10318975;28;20054;-78
2022/04/20 08:55:26;;;;;;;6.40;2.35;;;;;;;14.91;26.70;99831.25;10326627;28;20050;-78
2022/04/20 09:00:28;;;;;;;7.35;2.38;;;;;;;15.08;27.29;99835.16;10315626;28;20050;-78
2022/04/20 09:05:34;;;;;;;7.72;2.30;;;;;;;15.34;26.68;99828.63;10306933;28;20050;-78
2022/04/20 09:10:37;;;;;;;6.50;2.20;;;;;;;15.39;27.04;99818.56;10324902;28;20116;-78
2022/04/20 09:15:40;;;;;;;5.05;2.20;;;;;;;15.58;26.69;99813.50;10311506;28;20050;-78
2022/04/20 09:20:42;;;;;;;8.30;2.35;;;;;;;15.58;25.03;99807.38;10311525;28;20058;-78
2022/04/20 09:25:49;;;;;;;5.20;2.30;;;;;;;15.57;26.43;99805.72;10324197;28;20049;-78
2022/04/20 09:30:52;;;;;;;5.57;2.30;;;;;;;15.68;25.67;99801.22;10317883;28;20057;-78
2022/04/20 09:35:54;;;;;;;5.57;2.10;;;;;;;15.73;26.23;99811.41;10321342;28;20484;-78
2022/04/20 09:41:06;;;;;;;5.47;2.20;;;;;;;15.94;25.30;99804.31;10324020;28;21214;-77
2022/04/20 09:51:42;;;;;;;3.83;2.00;;;;;;;16.04;26.15;99784.97;10312424;28;20084;-78
2022/04/20 09:56:44;;;;;;;4.38;2.25;;;;;;;15.70;26.78;99788.75;10318162;28;20101;-78
2022/04/20 10:01:47;;;;;;;5.15;2.30;;;;;;;15.73;24.69;99777.13;10321474;28;20115;-78
2022/04/20 10:06:52;;;;;;;6.63;2.47;;;;;;;15.91;25.21;99768.50;10315127;28;20053;-78
2022/04/20 10:11:56;;;;;;;4.22;2.50;;;;;;;16.29;25.10;99775.78;10320355;28;20155;-79
2022/04/20 10:16:58;;;;;;;5.78;2.40;;;;;;;16.17;25.65;99758.38;10325160;28;20057;-78
2022/04/20 10:22:03;;;;;;;4.82;2.40;;;;;;;15.64;24.24;99757.63;10320512;28;20089;-78
2022/04/20 10:27:15;;;;;;;3.58;2.00;;;;;;;15.91;26.01;99755.31;10328400;28;20050;-78
2022/04/20 10:32:26;;;;;;;4.03;2.38;;;;;;;16.17;24.36;99753.94;10315121;28;20144;-78
2022/04/20 10:37:30;;;;;;;7.95;2.45;;;;;;;16.06;25.83;99746.09;10326084;28;20120;-78
2022/04/20 10:42:33;;;;;;;9.30;2.55;;;;;;;15.52;24.83;99749.91;10318396;28;20484;-78
2022/04/20 10:47:42;;;;;;;6.10;1.95;;;;;;;15.20;25.08;99731.44;10322142;28;20072;-77
2022/04/20 10:52:56;;;;;;;3.97;2.10;;;;;;;14.89;25.54;99727.81;10319731;28;20050;-78
2022/04/20 10:58:03;;;;;;;4.18;2.20;;;;;;;14.80;25.69;99725.91;10327706;28;20161;-78
2022/04/20 11:03:07;;;;;;;6.28;2.20;;;;;;;15.10;27.66;99709.44;10323768;28;20105;-78
2022/04/20 11:08:12;;;;;;;3.08;1.90;;;;;;;15.38;26.59;99703.56;10327670;28;20195;-78
2022/04/20 11:19:03;;;;;;;3.65;1.92;;;;;;;14.67;27.57;99698.09;10329939;28;20049;-78
2022/04/20 11:24:11;;;;;;;7.78;2.38;;;;;;;15.39;28.05;99700.81;10324360;28;20088;-78
2022/04/20 11:29:16;;;;;;;7.60;2.20;;;;;;;15.13;26.99;99688.13;10342431;28;20983;-78
2022/04/20 11:34:20;;;;;;;4.53;2.13;;;;;;;15.17;25.83;99679.00;10328316;28;20077;-78
2022/04/20 11:39:26;;;;;;;5.07;2.20;;;;;;;15.24;25.80;99667.84;10328028;28;20069;-78
2022/04/20 11:44:35;;;;;;;4.90;2.30;;;;;;;15.55;27.27;99665.31;10341075;28;20053;-77
2022/04/20 11:49:43;;;;;;;5.93;1.90;;;;;;;15.09;25.32;99666.47;10325968;28;20135;-78
2022/04/20 11:54:46;;;;;;;3.30;2.00;;;;;;;14.95;26.51;99663.28;10328962;28;20050;-78
2022/04/20 11:59:50;;;;;;;6.10;2.10;;;;;;;15.52;25.97;99662.91;10332127;28;20057;-77
2022/04/20 12:05:09;;;;;;;4.80;2.03;;;;;;;15.81;26.24;99658.66;10332240;28;20050;-78
2022/04/20 12:10:11;;;;;;;6.60;2.47;;;;;;;15.83;27.33;99652.28;10339219;28;20054;-78
2022/04/20 12:15:13;;;;;;;4.70;2.15;;;;;;;15.85;26.47;99636.31;10337221;28;21003;-78
2022/04/20 12:20:15;;;;;;;6.25;2.17;;;;;;;15.45;25.53;99654.66;10335792;28;20425;-78
2022/04/20 12:25:19;;;;;;;5.20;1.98;;;;;;;15.66;26.35;99647.59;10328111;28;20152;-78
2022/04/20 12:30:44;;;;;;;3.70;2.00;;;;;;;15.50;25.04;99646.41;10333973;28;20093;-78
2022/04/20 12:36:01;;;;;;;3.67;2.00;;;;;;;15.62;26.57;99629.53;10326777;28;20275;-78
2022/04/20 12:41:02;;;;;;;3.50;2.00;;;;;;;15.76;26.02;99616.00;10326310;28;20054;-78
2022/04/20 12:46:13;;;;;;;4.60;2.20;;;;;;;15.95;25.62;99624.84;10324968;28;20149;-78
2022/04/20 12:51:22;;;;;;;4.82;2.00;;;;;;;16.11;27.13;99601.44;10318287;28;20078;-78
2022/04/20 13:02:03;;;;;;;3.88;2.10;;;;;;;16.13;25.56;99588.97;10325210;28;20065;-77
2022/04/20 13:07:05;;;;;;;5.97;2.30;;;;;;;16.43;26.34;99597.75;10323383;28;20508;-77
2022/04/20 13:12:08;;;;;;;3.88;1.88;;;;;;;16.67;26.29;99588.50;10330965;28;20054;-78
2022/04/20 13:17:10;;;;;;;7.40;1.95;;;;;;;16.22;25.79;99585.50;10332527;28;20141;-78
2022/04/20 13:22:12;;;;;;;5.30;2.03;;;;;;;16.37;27.17;99580.66;10317748;28;20152;-78
2022/04/20 13:32:35;;;;;;;;;;;;;;;16.26;25.31;99572.03;10335055;28;20754;-77
2022/04/20 13:37:38;;;;;;;6.70;2.10;;;;;;;16.55;26.73;99565.84;10321091;28;20482;-78
2022/04/20 13:42:40;;;;;;;3.92;2.00;;;;;;;16.70;25.46;99556.56;10321306;28;20818;-78
2022/04/20 13:47:43;;;;;;;8.77;2.25;;;;;;;16.91;25.98;99541.41;10327317;28;20050;-78
2022/04/20 13:52:46;;;;;;;5.53;2.17;;;;;;;16.76;25.53;99540.16;10318335;28;20105;-78
2022/04/20 13:57:48;;;;;;;3.90;1.85;;;;;;;17.00;27.04;99545.81;10339346;28;20062;-78
2022/04/20 14:02:49;;;;;;;9.02;2.20;;;;;;;16.97;27.20;99534.69;10332568;28;20088;-78
2022/04/20 14:07:51;;;;;;;6.95;2.30;;;;;;;16.96;26.66;99536.50;10326415;28;20073;-77
2022/04/20 14:12:53;;;;;;;4.55;2.10;;;;;;;17.07;27.49;99537.31;10323860;28;20156;-78
2022/04/20 14:17:56;;;;;;;8.90;2.10;;;;;;;17.13;26.47;99540.22;10318226;28;20462;-78
2022/04/20 14:22:58;;;;;;;5.47;2.20;;;;;;;16.98;25.88;99545.13;10327771;28;20050;-78
2022/04/20 14:33:20;;;;;;;6.63;2.55;;;;;;;17.04;27.17;99531.34;10330704;28;20102;-78
2022/04/20 14:38:22;;;;;;;5.57;2.15;;;;;;;16.98;27.00;99536.34;10330150;28;20116;-78
2022/04/20 14:43:25;;;;;;;5.55;2.03;;;;;;;17.14;27.23;99533.16;10323834;28;20050;-77
2022/04/20 14:48:26;;;;;;;6.63;2.60;;;;;;;17.38;26.66;99533.53;10318581;28;20459;-78
2022/04/20 14:53:28;;;;;;;6.10;2.25;;;;;;;17.27;26.21;99523.09;10312873;28;20431;-77
2022/04/20 14:58:30;;;;;;;4.90;2.40;;;;;;;17.26;26.82;99530.16;10318778;28;20763;-77
2022/04/20 15:03:32;;;;;;;3.78;2.10;;;;;;;17.18;27.44;99521.31;10323595;28;20050;-77
2022/04/20 15:08:36;;;;;;;5.03;2.42;;;;;;;17.09;26.77;99516.88;10328245;28;20053;-77
2022/04/20 15:13:39;;;;;;;6.30;2.55;;;;;;;16.83;26.57;99517.47;10334887;28;20058;-78
2022/04/20 15:18:41;;;;;;;4.95;2.53;;;;;;;16.78;27.41;99524.16;10312496;28;20112;-77
2022/04/20 15:23:43;;;;;;;6.25;2.20;;;;;;;17.01;27.40;99510.50;10319003;28;20082;-77
2022/04/20 15:28:45;;;;;;;4.85;2.10;;;;;;;17.39;27.33;99509.59;10323297;28;20582;-77
2022/04/20 15:33:47;;;;;;;4.80;2.28;;;;;;;17.21;26.97;99511.28;10324442;28;20490;-78
2022/04/20 15:38:49;;;;;;;5.47;2.40;;;;;;;16.98;26.47;99512.56;10321682;28;20104;-78
2022/04/20 15:43:51;;;;;;;7.50;2.38;;;;;;;16.63;27.23;99515.00;10312720;28;20451;-77
2022/04/20 15:48:53;;;;;;;3.83;2.30;;;;;;;16.83;27.25;99522.75;10323798;28;20054;-77
2022/04/20 15:53:55;;;;;;;4.30;2.15;;;;;;;16.94;27.20;99516.47;10331772;28;20316;-77
2022/04/20 16:04:17;;;;;;;6.18;2.13;;;;;;;16.73;27.26;99514.00;10306843;28;20500;-77
2022/04/20 16:09:18;;;;;;;5.85;2.20;;;;;;;16.59;27.87;99497.78;10336063;28;20198;-78
2022/04/20 16:14:25;;;;;;;5.50;1.95;;;;;;;16.87;27.74;99497.72;10337548;28;20566;-77
2022/04/20 16:19:28;;;;;;;4.95;2.15;;;;;;;16.90;27.87;99491.31;10308792;28;20425;-78
2022/04/20 16:24:31;;;;;;;7.55;2.15;;;;;;;17.12;28.09;99487.53;10333359;28;20149;-77
2022/04/20 16:29:33;;;;;;;5.45;2.10;;;;;;;17.11;27.66;99493.78;10335324;28;20126;-77
2022/04/20 16:34:35;;;;;;;3.80;1.88;;;;;;;16.83;27.94;99495.53;10327999;28;20081;-77
2022/04/20 16:39:36;;;;;;;6.75;2.38;;;;;;;16.81;28.18;99489.56;10317294;28;20142;-77
2022/04/20 16:44:39;;;;;;;6.68;2.13;;;;;;;17.04;28.48;99490.88;10332569;28;20120;-77
2022/04/20 16:49:41;;;;;;;5.25;2.17;;;;;;;16.93;27.85;99480.50;10322831;28;20121;-77
2022/04/20 16:54:45;;;;;;;6.35;2.30;;;;;;;16.86;27.97;99482.03;10321631;28;20038;-77
2022/04/20 16:59:47;;;;;;;8.38;2.33;;;;;;;16.73;28.31;99482.31;10328523;28;20522;-77
2022/04/20 17:04:48;;;;;;;7.47;1.85;;;;;;;16.93;28.27;99475.22;10326546;28;20057;-78
2022/04/20 17:09:51;;;;;;;5.60;2.35;;;;;;;16.80;28.33;99474.66;10321103;28;20082;-77
2022/04/20 17:14:52;;;;;;;6.82;2.10;;;;;;;16.52;28.79;99472.91;10328126;28;20140;-77
2022/04/20 17:19:54;;;;;;;4.93;1.90;;;;;;;16.36;29.12;99467.31;10326579;28;20141;-77
2022/04/20 17:30:16;;;;;;;5.45;2.08;;;;;;;16.49;29.03;99475.84;10328014;28;20058;-77
2022/04/20 17:40:38;;;;;;;;;;;;;;;16.10;30.29;99481.06;10320541;28;20058;-77
2022/04/20 17:45:40;;;;;;;6.50;2.10;;;;;;;16.30;29.74;99478.44;10321901;28;19973;-78
2022/04/20 17:50:43;;;;;;;11.80;8.20;;;;;;;16.16;30.37;99474.41;10326206;28;20108;-77
2022/04/20 17:55:44;;;;;;;5.65;2.00;;;;;;;16.01;30.66;99481.03;10324147;28;20140;-77
2022/04/20 18:00:46;;;;;;;7.57;2.10;;;;;;;15.78;30.52;99472.53;10312815;28;20089;-77
2022/04/20 18:05:48;;;;;;;3.20;1.92;;;;;;;15.54;30.89;99481.75;10319501;28;20127;-78
2022/04/20 18:10:50;;;;;;;5.75;1.92;;;;;;;15.27;31.69;99493.69;10316803;28;20076;-78
2022/04/20 18:15:52;;;;;;;5.18;1.90;;;;;;;15.11;32.00;99492.50;10319049;28;20994;-77
2022/04/20 18:20:54;;;;;;;6.88;2.13;;;;;;;15.10;32.13;99498.75;10310255;28;20328;-77
2022/04/20 18:25:56;;;;;;;6.68;2.20;;;;;;;14.83;32.56;99501.06;10313621;28;20074;-77
2022/04/20 18:30:58;;;;;;;4.43;2.03;;;;;;;14.59;33.01;99512.66;10316116;28;20054;-78
2022/04/20 18:36:00;;;;;;;4.07;2.30;;;;;;;14.42;33.48;99507.94;10326801;28;20116;-77
2022/04/20 18:41:02;;;;;;;6.35;2.30;;;;;;;14.31;33.75;99526.38;10310483;28;20057;-77
2022/04/20 18:46:08;;;;;;;7.53;1.88;;;;;;;14.13;33.95;99525.25;10320222;28;20459;-77
2022/04/20 18:51:11;;;;;;;5.63;2.17;;;;;;;14.02;34.39;99527.94;10317554;28;20331;-78
2022/04/20 19:01:35;;;;;;;6.13;2.10;;;;;;;13.76;34.92;99544.91;10309161;28;20097;-78
2022/04/20 19:06:37;;;;;;;5.15;2.00;;;;;;;13.57;35.42;99547.31;10308447;28;20507;-78
2022/04/20 19:11:38;;;;;;;7.68;2.30;;;;;;;13.54;35.50;99558.06;10313424;28;20197;-77
2022/04/20 19:16:40;;;;;;;4.80;2.00;;;;;;;13.52;36.07;99571.31;10319026;28;20958;-77
2022/04/20 19:21:42;;;;;;;5.10;2.03;;;;;;;13.33;36.41;99573.66;10316258;28;20065;-77
2022/04/20 19:26:44;;;;;;;4.50;2.10;;;;;;;13.30;36.35;99573.91;10321269;28;20041;-77
2022/04/20 19:31:47;;;;;;;5.20;2.22;;;;;;;13.12;36.78;99584.97;10311312;28;20089;-77
2022/04/20 19:36:50;;;;;;;5.00;2.33;;;;;;;13.09;36.97;99586.00;10318645;28;20042;-77
2022/04/20 19:41:53;;;;;;;5.35;2.13;;;;;;;13.08;37.27;99592.22;10315300;28;20108;-77
2022/04/20 19:46:55;;;;;;;3.38;1.90;;;;;;;12.98;37.55;99593.03;10321168;28;20507;-78
2022/04/20 19:51:58;;;;;;;4.95;2.40;;;;;;;12.79;38.08;99598.81;10322931;28;20049;-77
2022/04/20 19:57:00;;;;;;;7.88;2.20;;;;;;;12.63;38.29;99596.50;10334505;28;20148;-77
2022/04/20 20:02:03;;;;;;;5.65;2.15;;;;;;;12.56;38.87;99597.03;10329976;28;20096;-77
2022/04/20 20:07:05;;;;;;;5.95;2.13;;;;;;;12.50;38.90;99595.69;10329427;28;20158;-77
2022/04/20 20:12:13;;;;;;;4.70;2.28;;;;;;;12.24;39.37;99601.13;10321304;28;20546;-77
2022/04/20 20:17:15;;;;;;;4.30;2.15;;;;;;;12.10;39.96;99594.25;10336507;28;20065;-76
2022/04/20 20:22:17;;;;;;;5.70;2.40;;;;;;;12.01;40.03;99606.22;10323442;28;20532;-77
2022/04/20 20:32:40;;;;;;;8.35;2.40;;;;;;;11.91;40.34;99609.59;10318032;28;20061;-77
2022/04/20 20:37:42;;;;;;;4.25;2.28;;;;;;;11.75;40.50;99615.06;10325870;28;20050;-77
2022/04/20 20:42:44;;;;;;;5.85;2.05;;;;;;;11.72;40.52;99625.75;10323773;28;20058;-77
2022/04/20 20:47:45;;;;;;;6.55;2.33;;;;;;;11.72;40.31;99622.31;10326388;28;20133;-77
2022/04/20 20:52:47;;;;;;;8.57;2.53;;;;;;;11.73;40.62;99623.97;10326757;28;21079;-77
2022/04/20 20:57:49;;;;;;;4.10;2.13;;;;;;;11.68;40.81;99624.28;10328770;28;20731;-77
2022/04/20 21:02:51;;;;;;;5.57;2.30;;;;;;;11.58;40.95;99619.81;10331537;28;20061;-77
2022/04/20 21:07:53;;;;;;;4.63;2.30;;;;;;;11.54;40.86;99620.97;10335063;28;20038;-77
2022/04/20 21:12:55;;;;;;;3.95;2.28;;;;;;;11.44;41.08;99633.00;10322491;28;20065;-77
2022/04/20 21:17:57;;;;;;;4.93;2.28;;;;;;;11.45;40.97;99621.56;10330027;28;20056;-77
2022/04/20 21:23:00;;;;;;;4.15;2.35;;;;;;;11.32;41.25;99620.75;10313746;28;20042;-77
2022/04/20 21:28:02;;;;;;;8.43;2.65;;;;;;;11.21;41.69;99627.50;10330150;28;20078;-77
2022/04/20 21:33:04;;;;;;;8.77;2.47;;;;;;;11.15;41.88;99620.06;10330216;28;20167;-77
2022/04/20 21:38:06;;;;;;;6.25;2.55;;;;;;;10.96;42.44;99629.22;10319658;28;20108;-77
2022/04/20 21:43:08;;;;;;;4.13;2.40;;;;;;;10.90;42.68;99633.09;10319789;28;20086;-77
2022/04/20 21:48:13;;;;;;;5.45;2.25;;;;;;;10.71;43.09;99632.59;10325802;28;20412;-77
2022/04/20 21:53:15;;;;;;;4.50;2.30;;;;;;;10.56;43.24;99636.22;10321832;28;20423;-77
2022/04/20 21:58:19;;;;;;;4.15;2.45;;;;;;;10.54;43.46;99635.50;10327528;28;20464;-77
2022/04/20 22:08:54;;;;;;;6.93;2.53;;;;;;;10.36;44.06;99647.09;10323221;28;20065;-77
2022/04/20 22:13:56;;;;;;;5.45;2.67;;;;;;;10.30;44.01;99645.72;10325843;28;20045;-77
2022/04/20 22:18:58;;;;;;;5.93;2.50;;;;;;;10.13;44.35;99642.50;10319242;28;20113;-77
2022/04/20 22:24:00;;;;;;;5.30;3.15;;;;;;;9.95;44.54;99643.63;10329628;28;20085;-77
2022/04/20 22:29:02;;;;;;;7.78;2.35;;;;;;;9.77;45.06;99642.97;10320100;28;20646;-77
2022/04/20 22:34:03;;;;;;;5.78;3.03;;;;;;;9.76;45.28;99632.63;10333594;28;20112;-77
2022/04/20 22:39:07;;;;;;;7.15;2.75;;;;;;;9.55;45.99;99632.97;10325414;28;20182;-77
2022/04/20 22:44:09;;;;;;;6.05;3.03;;;;;;;9.57;45.87;99620.66;10319185;28;20602;-77
2022/04/20 22:49:13;;;;;;;4.70;2.78;;;;;;;9.49;46.05;99625.50;10312800;28;20060;-77
2022/04/20 22:54:15;;;;;;;7.47;2.90;;;;;;;9.50;46.26;99626.34;10318740;28;20089;-77
2022/04/20 22:59:17;;;;;;;7.55;2.92;;;;;;;9.46;46.04;99624.84;10319908;28;20304;-77
2022/04/20 23:04:18;;;;;;;5.03;3.22;;;;;;;9.32;46.66;99630.88;10326527;28;20607;-77
2022/04/20 23:09:20;;;;;;;6.03;3.40;;;;;;;9.33;46.51;99629.97;10323897;28;20145;-77
2022/04/20 23:14:22;;;;;;;8.75;3.55;;;;;;;9.31;46.96;99623.16;10327184;28;20159;-77
2022/04/20 23:19:30;;;;;;;4.45;3.03;;;;;;;9.29;47.15;99628.47;10326129;28;20054;-77
2022/04/20 23:29:53;;;;;;;8.17;3.43;;;;;;;9.33;46.81;99619.53;10334484;28;20058;-78
2022/04/20 23:34:56;;;;;;;6.78;3.17;;;;;;;9.40;46.78;99623.44;10330503;28;20046;-77
2022/04/20 23:39:58;;;;;;;6.65;3.38;;;;;;;9.31;46.94;99613.56;10338512;28;20181;-77
2022/04/20 23:45:00;;;;;;;5.75;3.10;;;;;;;9.28;46.88;99605.06;10329990;28;20057;-78
2022/04/20 23:55:23;;;;;;;6.30;3.10;;;;;;;9.00;47.43;99599.78;10326434;28;20058;-78
